Trout Dale, Virginia
Current Conditions -  °F | °C
As of 8:15 AM on Saturday 01 Nov 2014 (Local Time) from KMKJ Reporting Station
Light Snow Light Snow  
Wind Chill: 29°   Ceiling: 2000
Heat Index: 34°   Visibility: 4mi
Dew Point: 31°   Wind: 6mph
Humidity: 89%   Direction: 260°W
Pressure: 29.87"   Gusts: NA
Location:  36.7°N, 81.44°W
Report Text: KMKJ 011215Z AUTO 26005KT 4SM -SN SCT014 BKN020 OVC050 01/00 A2987 RMK AO2 T00111005
Loading
Personal Weather Stations






























Interactive Weather Map
Tropical Storm Tracking
New forecast layout! Learn more

10-Day Weather Forecast

Advertisements
Track Severe Weather on mobile